Anl Warragul — A8UL6 — position and weather

sailwx.info

Track history (hours):
 
Tides and Currents Weather Stations Pressure Air Temp Water Temp Dewpoint Dewpoint Depression Visibility Wind Speed Wind Dir Waves Ship Positions

Anl Warragul

Last reported at 2018-Feb-22 16:57 UTC. Time now 2018-Feb-23 10:57 UTC.
Position N 37°16' W 122°43'.

Length 262 m; draft 9.3 m.

Type: Cargo ship. MMSI: 636091912.

Date/timePositionNaut miles runAvg speedWind from/ knotsBaromVisibWave heightAir tempDewpointWater temp
2018-Feb-22 16:57N 37°16' W 122°43'4 9.7
2018-Feb-22 16:30N 37°20' W 122°43'510.3
2018-Feb-22 15:59N 37°26' W 122°44'510.4
2018-Feb-22 15:30N 37°31' W 122°44'510.1
2018-Feb-22 15:00N 37°36' W 122°43'510.0
2018-Feb-22 14:30N 37°41' W 122°43'4 8.7
2018-Feb-22 14:00N 37°44' W 122°40'5 9.4
2018-Feb-22 13:31N 37°47' W 122°35'714.7
2018-Feb-22 13:00N 37°50' W 122°27'612.5
2018-Feb-22 12:31N 37°48' W 122°20'0 0.5
2018-Feb-22 11:58N 37°48' W 122°19'0 0.0
2018-Feb-22 11:28N 37°48' W 122°19'0 0.0
2018-Feb-22 11:00N 37°48' W 122°19'0 0.0
2018-Feb-22 10:30N 37°48' W 122°19'0 0.0
2018-Feb-22 10:00N 37°48' W 122°19'0 0.0
2018-Feb-22 09:30N 37°48' W 122°19'0 0.0
2018-Feb-22 09:00N 37°48' W 122°19'0 0.0
2018-Feb-22 08:30N 37°48' W 122°19'0 0.0
2018-Feb-22 08:00N 37°48' W 122°19'0 0.0
2018-Feb-22 07:30N 37°48' W 122°19'0 0.0
2018-Feb-22 07:00N 37°48' W 122°19'0 0.0
2018-Feb-22 06:30N 37°48' W 122°19'0 0.0
2018-Feb-22 06:00N 37°48' W 122°19'0 0.0
2018-Feb-22 05:30N 37°48' W 122°19'0 0.0
2018-Feb-22 05:00N 37°48' W 122°19'0 0.0
2018-Feb-22 04:30N 37°48' W 122°19'0 0.0
2018-Feb-22 04:00N 37°48' W 122°19'0 0.0
2018-Feb-22 03:30N 37°48' W 122°19'0 0.0
2018-Feb-22 03:00N 37°48' W 122°19'0 0.0
2018-Feb-22 02:30N 37°48' W 122°19'0 0.0
2018-Feb-22 02:00N 37°48' W 122°19'0 0.0
2018-Feb-22 01:30N 37°48' W 122°19'0 0.0
2018-Feb-22 01:00N 37°48' W 122°19'0 0.0
2018-Feb-22 00:30N 37°48' W 122°19'0 0.0
2018-Feb-22 00:00N 37°48' W 122°19'0 0.0
2018-Feb-21 23:30N 37°48' W 122°19'0 0.0
2018-Feb-21 23:00N 37°48' W 122°19'0 0.0
2018-Feb-21 22:30N 37°48' W 122°19'0 0.0
2018-Feb-21 22:00N 37°48' W 122°19'0 0.0
2018-Feb-21 21:30N 37°48' W 122°19'1 1.6
2018-Feb-21 21:00N 37°48' W 122°18'0 1.0
2018-Feb-21 20:30N 37°48' W 122°18'3 5.8
2018-Feb-21 20:01N 37°48' W 122°21'713.0
2018-Feb-21 19:30N 37°49' W 122°30'714.5
2018-Feb-21 19:01N 37°46' W 122°38'510.0
2018-Feb-21 18:30N 37°43' W 122°43'4 7.9
2018-Feb-21 18:01N 37°41' W 122°47'4 8.5
2018-Feb-21 17:30N 37°38' W 122°52'4 8.5
2018-Feb-21 17:00N 37°36' W 122°56'4 8.8
2018-Feb-21 16:31N 37°34' W 123°01'5 9.0
2018-Feb-21 16:00N 37°31' W 123°05'5 9.3
2018-Feb-21 15:30N 37°28' W 123°10'5 9.4
2018-Feb-21 14:58N 37°25' W 123°15'  
Track history (hours):
 
Tides and Currents Weather Stations Pressure Air Temp Water Temp Dewpoint Dewpoint Depression Visibility Wind Speed Wind Dir Waves Ship Positions

Anl Warragul

Last reported at 2018-Feb-22 16:57 UTC. Time now 2018-Feb-23 10:57 UTC.
Position N 37°16' W 122°43'.

Length 262 m; draft 9.3 m.

Type: Cargo ship. MMSI: 636091912.

Date/timePositionNaut miles runAvg speedWind from/ knotsBaromVisibWave heightAir tempDewpointWater temp
2018-Feb-22 16:57N 37°16' W 122°43'4 9.7
2018-Feb-22 16:30N 37°20' W 122°43'510.3
2018-Feb-22 15:59N 37°26' W 122°44'510.4
2018-Feb-22 15:30N 37°31' W 122°44'510.1
2018-Feb-22 15:00N 37°36' W 122°43'510.0
2018-Feb-22 14:30N 37°41' W 122°43'4 8.7
2018-Feb-22 14:00N 37°44' W 122°40'5 9.4
2018-Feb-22 13:31N 37°47' W 122°35'714.7
2018-Feb-22 13:00N 37°50' W 122°27'612.5
2018-Feb-22 12:31N 37°48' W 122°20'0 0.5
2018-Feb-22 11:58N 37°48' W 122°19'0 0.0
2018-Feb-22 11:28N 37°48' W 122°19'0 0.0
2018-Feb-22 11:00N 37°48' W 122°19'0 0.0
2018-Feb-22 10:30N 37°48' W 122°19'0 0.0
2018-Feb-22 10:00N 37°48' W 122°19'0 0.0
2018-Feb-22 09:30N 37°48' W 122°19'0 0.0
2018-Feb-22 09:00N 37°48' W 122°19'0 0.0
2018-Feb-22 08:30N 37°48' W 122°19'0 0.0
2018-Feb-22 08:00N 37°48' W 122°19'0 0.0
2018-Feb-22 07:30N 37°48' W 122°19'0 0.0
2018-Feb-22 07:00N 37°48' W 122°19'0 0.0
2018-Feb-22 06:30N 37°48' W 122°19'0 0.0
2018-Feb-22 06:00N 37°48' W 122°19'0 0.0
2018-Feb-22 05:30N 37°48' W 122°19'0 0.0
2018-Feb-22 05:00N 37°48' W 122°19'0 0.0
2018-Feb-22 04:30N 37°48' W 122°19'0 0.0
2018-Feb-22 04:00N 37°48' W 122°19'0 0.0
2018-Feb-22 03:30N 37°48' W 122°19'0 0.0
2018-Feb-22 03:00N 37°48' W 122°19'0 0.0
2018-Feb-22 02:30N 37°48' W 122°19'0 0.0
2018-Feb-22 02:00N 37°48' W 122°19'0 0.0
2018-Feb-22 01:30N 37°48' W 122°19'0 0.0
2018-Feb-22 01:00N 37°48' W 122°19'0 0.0
2018-Feb-22 00:30N 37°48' W 122°19'0 0.0
2018-Feb-22 00:00N 37°48' W 122°19'0 0.0
2018-Feb-21 23:30N 37°48' W 122°19'0 0.0
2018-Feb-21 23:00N 37°48' W 122°19'0 0.0
2018-Feb-21 22:30N 37°48' W 122°19'0 0.0
2018-Feb-21 22:00N 37°48' W 122°19'0 0.0
2018-Feb-21 21:30N 37°48' W 122°19'1 1.6
2018-Feb-21 21:00N 37°48' W 122°18'0 1.0
2018-Feb-21 20:30N 37°48' W 122°18'3 5.8
2018-Feb-21 20:01N 37°48' W 122°21'713.0
2018-Feb-21 19:30N 37°49' W 122°30'714.5
2018-Feb-21 19:01N 37°46' W 122°38'510.0
2018-Feb-21 18:30N 37°43' W 122°43'4 7.9
2018-Feb-21 18:01N 37°41' W 122°47'4 8.5
2018-Feb-21 17:30N 37°38' W 122°52'4 8.5
2018-Feb-21 17:00N 37°36' W 122°56'4 8.8
2018-Feb-21 16:31N 37°34' W 123°01'5 9.0
2018-Feb-21 16:00N 37°31' W 123°05'5 9.3
2018-Feb-21 15:30N 37°28' W 123°10'5 9.4
2018-Feb-21 14:58N 37°25' W 123°15'  

Dump ship's entire track history